»·PEaware :: N212C KSLC-KASE

N212C :: KSLC-KASE

FLIGHT INFORMATION

Flight Status: Arrived
Operator: Privately registered:
United States
More flights under this callsign
Pilot: Mitch R. (11204)
Aircraft: BOMBARDIER BD-100 CHALLENGER 300
(CL30)
More flights by this aircraft type
Origin: KSLC Salt Lake City Intl
United States
Destination: KASE Aspen-Pitkin Co/Sardy
United States
More flights between these airports :: More routes between these airports
Route: NSIGN5 EKR DBL
File this flight plan on PilotEdge
Remarks:
Altitude:
(Current/Filed)
39,000ft
Speed:
(Current/Filed)
468kts
Departed: 07-Jan-18 03:49 PM
Arrived: 07-Jan-18 04:36 PM
Distance/Time
Traveled:
253nm/0:47
Distance/Time
To Go:
Arrived

Flight Plot

Page will automatically refresh every two minutes.

Flight plan parsing failed; only flown route is shown


Map Options




Map Legend


Flown Route
Filed Route
Departure Airport
Arrival Airport
Navaid (VOR, NDB)
Fix

Horizontal Profiles

Position Reports

Time Latitude Longitude Heading Altitude Ground
Speed
07-Jan-18 15:32 40.775648 -111.958739 358 4203ft 0kts
07-Jan-18 15:33 40.775648 -111.958739 358 4203ft 0kts
07-Jan-18 15:34 40.775648 -111.958739 358 4203ft 0kts
07-Jan-18 15:35 40.775648 -111.958739 358 4203ft 0kts
07-Jan-18 15:36 40.775648 -111.958739 358 4203ft 0kts
07-Jan-18 15:37 40.775648 -111.958739 358 4203ft 0kts
07-Jan-18 15:38 40.775648 -111.958739 358 4203ft 0kts
07-Jan-18 15:39 40.775648 -111.958739 358 4203ft 0kts
07-Jan-18 15:40 40.775648 -111.958739 358 4203ft 0kts
07-Jan-18 15:41 40.775648 -111.958739 358 4203ft 0kts
07-Jan-18 15:42 40.775648 -111.958739 358 4203ft 0kts
07-Jan-18 15:43 40.775648 -111.958739 358 4203ft 0kts
07-Jan-18 15:44 40.775648 -111.958739 359 4203ft 0kts
07-Jan-18 15:45 40.775648 -111.958739 359 4203ft 0kts
07-Jan-18 15:46 40.775926 -111.959297 260 4203ft 7kts
07-Jan-18 15:47 40.774176 -111.960622 180 4203ft 8kts
07-Jan-18 15:48 40.772885 -111.962056 345 4203ft 5kts
07-Jan-18 15:49 40.782417 -111.961350 87 4203ft 9kts
07-Jan-18 15:50 40.782410 -111.960460 99 4203ft 4kts
07-Jan-18 15:51 40.780285 -111.960016 180 4203ft 10kts
07-Jan-18 15:52 40.777623 -111.960628 180 4203ft 4kts
07-Jan-18 15:53 40.773606 -111.960629 180 4203ft 11kts
07-Jan-18 15:54 40.773431 -111.962082 0 4203ft 29kts
07-Jan-18 15:55 40.821041 -111.965248 353 7087ft 246kts
07-Jan-18 15:56 40.890725 -111.974460 350 13411ft 267kts
07-Jan-18 15:57 40.963835 -111.984323 348 18641ft 285kts
07-Jan-18 15:58 41.040989 -112.003912 343 23100ft 300kts
07-Jan-18 15:59 41.111055 -111.943961 80 24362ft 394kts
07-Jan-18 16:00 41.050265 -111.838443 161 27997ft 403kts
07-Jan-18 16:01 40.953205 -111.760595 138 30932ft 435kts
07-Jan-18 16:02 40.867066 -111.648835 132 34090ft 440kts
07-Jan-18 16:03 40.816927 -111.503568 104 36882ft 445kts
07-Jan-18 16:04 40.781829 -111.348169 105 39222ft 455kts
07-Jan-18 16:05 40.743389 -111.178966 105 39245ft 522kts
07-Jan-18 16:06 40.701034 -110.993729 105 39235ft 532kts
07-Jan-18 16:07 40.658498 -110.809018 105 39238ft 532kts
07-Jan-18 16:08 40.615435 -110.623569 105 39241ft 532kts
07-Jan-18 16:09 40.572233 -110.438953 104 39243ft 531kts
07-Jan-18 16:10 40.530628 -110.255632 101 39233ft 526kts
07-Jan-18 16:11 40.496137 -110.072094 101 39235ft 524kts
07-Jan-18 16:12 40.461301 -109.888825 101 39239ft 522kts
07-Jan-18 16:13 40.426026 -109.705006 101 39241ft 523kts
07-Jan-18 16:14 40.390390 -109.521029 101 39244ft 523kts
07-Jan-18 16:15 40.354985 -109.339902 101 39243ft 524kts
07-Jan-18 16:16 40.318837 -109.156691 101 39237ft 523kts
07-Jan-18 16:17 40.282594 -108.974611 101 39184ft 517kts
07-Jan-18 16:18 40.246026 -108.792514 101 38215ft 518kts
07-Jan-18 16:19 40.209358 -108.611588 100 37232ft 515kts
07-Jan-18 16:20 40.173115 -108.434258 99 35639ft 514kts
07-Jan-18 16:21 40.136742 -108.257771 99 33662ft 515kts
07-Jan-18 16:22 40.099493 -108.078544 99 32137ft 509kts
07-Jan-18 16:23 40.051100 -107.908239 121 30885ft 512kts
07-Jan-18 16:24 39.967968 -107.761393 124 29023ft 499kts
07-Jan-18 16:25 39.885167 -107.622895 125 26863ft 479kts
07-Jan-18 16:26 39.805738 -107.491847 125 24667ft 454kts
07-Jan-18 16:27 39.732482 -107.371507 127 23283ft 387kts
07-Jan-18 16:28 39.664298 -107.260047 126 20760ft 410kts
07-Jan-18 16:29 39.595658 -107.148217 126 18665ft 388kts
07-Jan-18 16:30 39.531884 -107.043959 129 16568ft 356kts
07-Jan-18 16:31 39.475570 -106.953244 129 14502ft 289kts
07-Jan-18 16:32 39.421910 -106.912411 180 14038ft 191kts
07-Jan-18 16:33 39.374330 -106.915401 185 13145ft 168kts
07-Jan-18 16:34 39.330093 -106.918037 177 11783ft 153kts
07-Jan-18 16:35 39.292925 -106.901485 167 10329ft 137kts
07-Jan-18 16:36 39.259992 -106.881595 120 9324ft 142kts
07-Jan-18 16:37 39.286768 -106.865120 335 9929ft 157kts
07-Jan-18 16:38 39.323184 -106.892343 279 10496ft 149kts
07-Jan-18 16:39 39.296974 -106.905558 155 9263ft 133kts
07-Jan-18 16:40 39.265560 -106.889059 163 8398ft 124kts
07-Jan-18 16:41 39.233496 -106.873731 161 7814ft 123kts
07-Jan-18 16:42 39.222242 -106.868068 84 7780ft 4kts
07-Jan-18 16:43 39.222696 -106.866829 70 7780ft 5kts
07-Jan-18 16:44 39.223010 -106.866648 250 7780ft 0kts

Navigation Log

Ident Type
Flight plan parsing failed, navigation log unavailable